Terminal Aerodrome Forecast
Issued by NWS Central Illinois

Home | Current Version | Previous Version | Text Only | Print | Product List | Glossary On
Versions: 1 2 3 4 5 6 7 8 9 10 11 12 13 14 15 16 17 18
834
FTUS43 KILX 082331
TAFSPI
TAF
KSPI 082331Z 0900/0924 31012KT 4SM -SN BR OVC020
     FM091600 31014G20KT P6SM OVC025=

USA.gov is the U.S. government's official web portal to all federal, state and local government web resources and services.